Time;durP1;ratioP1;P1;durP2;ratioP2;P2;SDS_P1;SDS_P2;PMS_P1;PMS_P2;Temp;Humidity;BMP_temperature;BMP_pressure;BME280_temperature;BME280_humidity;BME280_pressure;Samples;Min_cycle;Max_cycle;Signal;HPM_P1;HPM_P2
2022/12/25 00:00:12;;;;;;;3.17;2.00;;;9.90;99.90;;;12.96;56.46;97730.75;5041943;28;20343;-61
2022/12/25 00:02:47;;;;;;;2.20;1.60;;;9.90;99.90;;;13.01;56.38;97725.75;5035459;28;20055;-61
2022/12/25 00:05:15;;;;;;;7.80;2.10;;;10.00;99.90;;;12.99;56.28;97728.59;5042602;28;20052;-61
2022/12/25 00:07:43;;;;;;;2.77;1.80;;;10.00;99.90;;;12.99;56.37;97733.94;5042868;28;20057;-61
2022/12/25 00:10:11;;;;;;;4.37;1.90;;;10.00;99.90;;;13.03;56.28;97741.56;5041425;28;20119;-61
2022/12/25 00:12:40;;;;;;;2.73;1.73;;;10.00;99.90;;;13.03;56.42;97737.09;5033175;28;20176;-61
2022/12/25 00:15:08;;;;;;;6.07;1.97;;;10.10;99.90;;;13.06;56.24;97727.88;5042638;28;20052;-61
2022/12/25 00:17:36;;;;;;;3.93;2.10;;;10.00;99.90;;;13.06;56.44;97738.56;5041378;28;20344;-61
2022/12/25 00:20:05;;;;;;;3.57;2.10;;;10.10;99.90;;;13.00;56.38;97729.41;5041289;28;20052;-61
2022/12/25 00:22:33;;;;;;;3.70;2.37;;;10.00;99.90;;;13.06;56.37;97720.69;5041324;28;20045;-62
2022/12/25 00:25:01;;;;;;;4.20;2.10;;;10.10;99.90;;;13.10;56.11;97723.84;5041025;28;20065;-61
2022/12/25 00:27:32;;;;;;;3.70;2.67;;;10.10;99.90;;;13.10;56.43;97719.31;5041958;28;20042;-61
2022/12/25 00:30:00;;;;;;;4.37;2.43;;;10.00;99.90;;;13.11;55.91;97728.19;5042486;28;20050;-61
2022/12/25 00:32:28;;;;;;;3.43;1.93;;;10.00;99.90;;;13.10;56.08;97716.66;5041663;28;20051;-61
2022/12/25 00:34:56;;;;;;;3.97;2.20;;;10.00;99.90;;;13.11;55.88;97715.66;5042172;28;20047;-61
2022/12/25 00:37:24;;;;;;;2.67;1.80;;;10.00;99.90;;;13.10;56.10;97719.31;5041329;28;20057;-61
2022/12/25 00:39:52;;;;;;;3.30;2.03;;;10.00;99.90;;;13.12;55.90;97716.47;5041132;28;20045;-61
2022/12/25 00:42:19;;;;;;;3.33;1.90;;;10.10;99.90;;;13.14;55.88;97725.16;5041704;28;20351;-61
2022/12/25 00:44:49;;;;;;;4.33;1.80;;;10.10;99.90;;;13.10;56.05;97719.31;5040568;28;20049;-62
2022/12/25 00:47:17;;;;;;;2.80;1.80;;;10.00;99.90;;;13.12;56.12;97724.50;5040878;28;20033;-61
2022/12/25 00:49:45;;;;;;;3.97;1.60;;;10.00;99.90;;;13.15;56.00;97729.50;5042469;28;20298;-61
2022/12/25 00:52:13;;;;;;;3.60;2.10;;;10.00;99.90;;;13.20;56.05;97732.47;5040630;28;20045;-61
2022/12/25 00:54:41;;;;;;;2.03;1.47;;;10.00;99.90;;;13.20;55.67;97735.13;5024790;28;20055;-61
2022/12/25 00:57:09;;;;;;;3.07;1.67;;;10.10;99.90;;;13.20;55.80;97727.13;5041621;28;20258;-59
2022/12/25 00:59:36;;;;;;;2.30;1.30;;;10.10;99.90;;;13.19;55.70;97731.66;5041809;28;20057;-61
2022/12/25 01:02:22;;;;;;;3.23;1.90;;;10.10;99.90;;;13.20;55.23;97724.44;5041623;28;20061;-61
2022/12/25 01:04:54;;;;;;;3.30;1.30;;;10.10;99.90;;;13.19;55.72;97722.81;5034280;28;20049;-61
2022/12/25 01:07:25;;;;;;;2.93;1.70;;;10.10;99.90;;;13.20;55.94;97719.09;5041519;28;20037;-61
2022/12/25 01:12:41;;;;;;;2.87;1.80;;;10.20;99.90;;;13.25;55.74;97718.59;5041294;28;20049;-61
2022/12/25 01:15:11;;;;;;;3.83;1.63;;;10.20;99.90;;;13.26;55.63;97725.59;5041825;28;20045;-61
2022/12/25 01:17:39;;;;;;;2.80;1.37;;;10.20;99.90;;;13.28;55.65;97727.09;5041901;28;20225;-61
2022/12/25 01:20:08;;;;;;;2.80;1.60;;;10.20;99.90;;;13.26;55.58;97730.94;5040562;28;20041;-61
2022/12/25 01:22:36;;;;;;;4.03;1.70;;;10.20;99.90;;;13.28;55.54;97724.44;5039573;28;20051;-61
2022/12/25 01:25:05;;;;;;;3.13;1.57;;;10.20;99.90;;;13.31;55.48;97733.97;5040825;28;20075;-61
2022/12/25 01:27:34;;;;;;;2.03;1.40;;;10.20;99.90;;;13.29;55.41;97730.59;5041540;28;20045;-61
2022/12/25 01:30:02;;;;;;;3.80;1.50;;;10.30;99.90;;;13.28;55.55;97731.59;5041717;28;20260;-61
2022/12/25 01:32:30;;;;;;;1.90;1.50;;;10.30;99.90;;;13.28;55.54;97737.78;5041229;28;20041;-61
2022/12/25 01:34:58;;;;;;;3.07;1.50;;;10.30;99.90;;;13.29;55.64;97743.97;5041408;28;20052;-61
2022/12/25 01:37:26;;;;;;;2.07;1.27;;;10.40;99.90;;;13.27;55.46;97746.81;5041560;28;20049;-61
2022/12/25 01:39:54;;;;;;;2.50;1.70;;;10.40;99.90;;;13.25;55.65;97748.00;5043943;28;20052;-61
2022/12/25 01:42:22;;;;;;;3.70;1.80;;;10.40;99.90;;;13.22;55.69;97751.00;5043708;28;20045;-62
2022/12/25 01:44:50;;;;;;;2.30;1.43;;;10.40;99.90;;;13.24;55.42;97749.00;5045360;28;20046;-61
2022/12/25 01:47:18;;;;;;;2.13;1.27;;;10.30;99.90;;;13.24;55.75;97743.66;5045486;28;20346;-61
2022/12/25 01:49:49;;;;;;;2.13;1.30;;;10.40;99.90;;;13.19;55.65;97737.00;5037326;28;20041;-61
2022/12/25 01:52:22;;;;;;;2.17;1.40;;;10.30;99.90;;;13.08;55.62;97733.88;5043795;28;20049;-61
2022/12/25 01:55:02;;;;;;;2.50;1.30;;;10.30;99.90;;;13.07;55.87;97738.41;5043544;28;20049;-61
2022/12/25 01:57:34;;;;;;;3.67;2.27;;;10.30;99.90;;;13.13;55.98;97742.22;5045043;28;20041;-62
2022/12/25 02:00:06;;;;;;;2.20;1.70;;;10.30;99.90;;;13.15;55.79;97743.69;5043841;28;20255;-61
2022/12/25 02:02:35;;;;;;;1.93;1.33;;;10.30;99.90;;;13.19;55.67;97745.00;5043553;28;20038;-61
2022/12/25 02:05:14;;;;;;;2.77;1.30;;;10.30;99.90;;;13.23;55.87;97755.38;5043643;28;20079;-61
2022/12/25 02:07:43;;;;;;;2.53;1.60;;;10.20;99.90;;;13.27;55.41;97749.47;5044787;28;20045;-61
2022/12/25 02:10:11;;;;;;;6.77;1.67;;;10.30;99.90;;;13.29;55.56;97747.47;5043819;28;20061;-61
2022/12/25 02:12:41;;;;;;;2.47;1.80;;;10.20;99.90;;;13.31;55.43;97741.97;5043331;28;20393;-61
2022/12/25 02:15:16;;;;;;;3.00;1.63;;;10.20;99.90;;;13.31;55.37;97740.13;5043744;28;20044;-61
2022/12/25 02:18:08;;;;;;;3.67;1.53;;;10.20;99.90;;;13.31;55.35;97744.66;5043140;28;20047;-61
2022/12/25 02:20:41;;;;;;;2.67;1.60;;;10.20;99.90;;;13.33;55.82;97745.31;5024494;28;20056;-61
2022/12/25 02:23:55;;;;;;;2.25;1.60;;;10.20;99.90;;;13.33;55.54;97743.47;5044724;28;20079;-61
2022/12/25 02:27:00;;;;;;;4.47;2.10;;;10.20;99.90;;;13.36;55.52;97736.94;5040373;28;20049;-61
2022/12/25 02:30:08;;;;;;;3.73;2.03;;;10.20;99.90;;;13.36;55.43;97734.28;5044258;28;20055;-61
2022/12/25 02:32:50;;;;;;;4.23;2.40;;;10.20;99.90;;;13.37;55.77;97738.59;5044022;28;20074;-61
2022/12/25 02:35:29;;;;;;;5.83;2.17;;;10.20;99.90;;;13.36;55.40;97731.59;5043471;28;20052;-61
2022/12/25 02:38:09;;;;;;;3.97;2.10;;;10.10;99.90;;;13.37;55.62;97739.41;5027166;28;20055;-61
2022/12/25 02:40:48;;;;;;;2.93;1.60;;;10.20;99.90;;;13.38;55.76;97734.94;5043379;28;20052;-61
2022/12/25 03:06:45;;;;;;;3.00;1.90;;;10.00;99.90;;;13.25;56.27;97726.63;5042853;28;20239;-61
2022/12/25 03:12:20;;;;;;;3.37;1.73;;;10.10;99.90;;;13.25;56.13;97706.06;5037062;28;20373;-61
2022/12/25 03:17:35;;;;;;;2.67;1.50;;;10.10;99.90;;;13.22;56.38;97706.38;5043478;28;20052;-61
2022/12/25 03:28:28;;;;;;;4.97;2.30;;;10.00;99.90;;;12.86;56.83;97687.41;5043324;28;20049;-61
2022/12/25 03:31:20;;;;;;;3.57;2.10;;;10.00;99.90;;;12.72;56.86;97684.47;5043346;28;20045;-61
2022/12/25 04:37:35;;;;;;;5.33;3.07;;;9.70;99.90;;;12.50;58.00;97655.84;5040843;28;20349;-61
2022/12/25 04:40:03;;;;;;;5.23;3.03;;;9.70;99.90;;;12.46;58.57;97646.50;5042228;28;20052;-61
2022/12/25 04:42:31;;;;;;;4.80;2.93;;;9.70;99.90;;;12.45;58.22;97647.53;5041730;28;20045;-61
2022/12/25 04:44:59;;;;;;;6.17;2.80;;;9.70;99.90;;;12.44;58.24;97648.53;5042219;28;20043;-61
2022/12/25 04:47:27;;;;;;;4.20;2.90;;;9.70;99.90;;;12.49;58.31;97649.66;5040863;28;20053;-60
2022/12/25 04:49:54;;;;;;;4.13;3.03;;;9.70;99.90;;;12.49;58.28;97655.00;5041806;28;20045;-60
2022/12/25 04:52:22;;;;;;;4.30;2.67;;;9.70;99.90;;;12.53;58.07;97655.50;5041647;28;20046;-60
2022/12/25 04:54:50;;;;;;;4.43;2.53;;;9.70;99.90;;;12.57;58.26;97656.81;5041864;28;20059;-60
2022/12/25 04:57:18;;;;;;;4.83;3.20;;;9.70;99.90;;;12.60;57.94;97651.09;5041591;28;20336;-60
2022/12/25 04:59:46;;;;;;;3.10;2.53;;;9.80;99.90;;;12.63;57.89;97644.59;5041812;28;20047;-60
2022/12/25 05:02:14;;;;;;;4.07;2.40;;;9.80;99.90;;;12.66;57.74;97637.09;5040566;28;20053;-60
2022/12/25 05:04:42;;;;;;;4.40;2.30;;;9.80;99.90;;;12.63;58.02;97648.09;5041887;28;20344;-60
2022/12/25 05:07:09;;;;;;;3.50;2.03;;;9.80;99.90;;;12.66;58.09;97645.09;5041806;28;20374;-60
2022/12/25 05:09:40;;;;;;;4.53;2.80;;;9.80;99.90;;;12.72;58.12;97633.72;5041526;28;20366;-60
2022/12/25 05:12:09;;;;;;;3.20;2.03;;;9.80;99.90;;;12.71;58.02;97632.03;5041516;28;20060;-60
2022/12/25 05:14:38;;;;;;;3.90;2.37;;;9.80;99.90;;;12.71;58.02;97632.03;5043323;28;20372;-60
2022/12/25 05:17:07;;;;;;;3.03;2.30;;;9.80;99.90;;;12.74;57.83;97638.88;5045695;28;20229;-60
2022/12/25 05:19:34;;;;;;;3.57;2.80;;;9.90;99.90;;;12.75;57.60;97632.50;5044228;28;20054;-60
2022/12/25 05:22:02;;;;;;;3.33;1.90;;;9.80;99.90;;;12.73;57.96;97627.34;5043169;28;20052;-60
2022/12/25 05:24:30;;;;;;;4.93;2.90;;;9.80;99.90;;;12.72;57.98;97624.88;5045649;28;20064;-60
2022/12/25 05:26:58;;;;;;;2.77;2.23;;;9.80;99.90;;;12.71;57.70;97632.03;5036681;28;20041;-60
2022/12/25 05:29:25;;;;;;;3.30;2.40;;;9.80;99.90;;;12.70;57.99;97632.22;5045845;28;20037;-60
2022/12/25 05:31:53;;;;;;;3.77;2.03;;;9.80;99.90;;;12.73;57.94;97632.69;5045438;28;20347;-60
2022/12/25 05:34:21;;;;;;;2.93;2.23;;;9.90;99.90;;;12.73;57.83;97632.69;5045106;28;20077;-60
2022/12/25 05:36:49;;;;;;;2.83;1.80;;;9.80;99.90;;;12.72;57.62;97632.88;5044208;28;20291;-61
2022/12/25 05:39:17;;;;;;;3.07;1.90;;;9.90;99.90;;;12.68;57.82;97631.53;5044195;28;20260;-60
2022/12/25 05:41:45;;;;;;;3.00;1.80;;;9.90;99.90;;;12.67;57.91;97637.91;5045033;28;20049;-60
2022/12/25 05:44:13;;;;;;;2.83;2.00;;;9.90;99.90;;;12.66;58.01;97630.88;5043991;28;20052;-60
2022/12/25 05:46:41;;;;;;;2.17;1.60;;;9.90;99.90;;;12.71;57.94;97624.00;5043952;28;20051;-61
2022/12/25 05:49:09;;;;;;;4.87;2.80;;;9.90;99.90;;;12.67;57.79;97621.88;5044211;28;20047;-60
2022/12/25 05:51:36;;;;;;;2.63;1.80;;;9.90;99.90;;;12.69;58.02;97612.69;5044234;28;20049;-60
2022/12/25 05:54:04;;;;;;;4.37;2.20;;;10.00;99.90;;;12.67;58.02;97617.38;5044731;28;20045;-60
2022/12/25 05:56:32;;;;;;;3.47;2.07;;;9.90;99.90;;;12.72;57.93;97614.19;5044871;28;20060;-60
2022/12/25 05:59:00;;;;;;;3.93;2.23;;;9.90;99.90;;;12.73;57.95;97610.50;5036196;28;20037;-60
2022/12/25 06:01:28;;;;;;;2.43;1.70;;;10.00;99.90;;;12.77;58.09;97603.78;5044886;28;20059;-61
2022/12/25 06:03:56;;;;;;;2.90;1.70;;;10.00;99.90;;;12.80;58.03;97606.13;5043332;28;20251;-60
2022/12/25 06:06:24;;;;;;;4.27;1.83;;;10.10;99.90;;;12.87;57.89;97601.75;5044631;28;20045;-60
2022/12/25 06:08:54;;;;;;;2.57;1.70;;;10.10;99.90;;;12.91;57.70;97600.38;5042668;28;20063;-60
2022/12/25 06:11:22;;;;;;;1.97;1.77;;;10.10;99.90;;;12.96;57.57;97595.31;5042317;28;20048;-60
2022/12/25 06:13:51;;;;;;;2.80;1.70;;;10.10;99.90;;;13.03;57.44;97599.94;5042115;28;20046;-60
2022/12/25 06:16:19;;;;;;;4.17;1.97;;;10.10;99.90;;;13.04;57.33;97596.28;5042348;28;20397;-60
2022/12/25 06:18:51;;;;;;;2.47;1.83;;;10.20;99.90;;;13.04;57.44;97591.75;5042607;28;20343;-61
2022/12/25 06:21:19;;;;;;;2.93;1.83;;;10.10;99.90;;;13.08;57.15;97587.72;5042257;28;20057;-61
2022/12/25 06:23:47;;;;;;;4.20;2.23;;;10.10;99.90;;;13.10;57.14;97587.53;5042079;28;20113;-61
2022/12/25 06:26:18;;;;;;;3.00;2.10;;;10.10;99.90;;;13.09;57.21;97586.72;5041561;28;20058;-60
2022/12/25 06:28:46;;;;;;;3.57;2.00;;;10.00;99.90;;;13.08;57.28;97585.03;5042447;28;20255;-60
2022/12/25 06:31:18;;;;;;;2.67;2.20;;;10.10;99.90;;;13.10;57.30;97582.19;5042408;28;20043;-60
2022/12/25 06:33:47;;;;;;;3.47;1.87;;;10.10;99.90;;;13.12;57.17;97577.50;5043021;28;20051;-60
2022/12/25 06:36:21;;;;;;;3.53;2.20;;;10.10;99.90;;;13.16;57.10;97593.03;5042124;28;20370;-60
2022/12/25 06:38:49;;;;;;;3.53;2.40;;;10.10;99.90;;;13.16;57.10;97586.81;5042031;28;20378;-60
2022/12/25 06:41:24;;;;;;;6.20;2.63;;;10.10;99.90;;;13.15;57.23;97580.66;5042141;28;20356;-61
2022/12/25 06:43:58;;;;;;;3.73;2.70;;;10.10;99.90;;;13.19;57.10;97589.97;5041893;28;20045;-60
2022/12/25 06:46:28;;;;;;;3.35;2.10;;;10.10;99.90;;;13.22;57.08;97588.78;5042316;28;20063;-60
2022/12/25 06:48:58;;;;;;;3.07;1.70;;;10.10;99.90;;;13.21;56.78;97592.47;5042917;28;20049;-60
2022/12/25 06:51:30;;;;;;;4.27;2.10;;;10.10;99.90;;;13.19;57.19;97591.81;5041864;28;20043;-53
2022/12/25 06:54:01;;;;;;;2.97;1.87;;;10.10;99.90;;;13.22;57.19;97595.97;5041636;28;20037;-53
2022/12/25 06:56:31;;;;;;;2.27;1.83;;;10.20;99.90;;;13.23;57.12;97598.47;5042521;28;20053;-54
2022/12/25 06:59:06;;;;;;;4.03;2.03;;;10.20;99.90;;;13.25;57.03;97598.28;5041831;28;20259;-51
2022/12/25 07:01:56;;;;;;;2.30;1.83;;;10.30;99.90;;;13.24;57.14;97609.97;5042824;28;20055;-55
2022/12/25 07:04:37;;;;;;;3.53;1.90;;;10.30;99.90;;;13.29;56.88;97597.75;5036508;28;20064;-52
2022/12/25 07:07:07;;;;;;;2.60;1.87;;;10.30;99.90;;;13.32;56.96;97604.63;4985045;28;1421274;-52
2022/12/25 07:09:41;;;;;;;2.43;1.50;;;10.30;99.90;;;13.32;57.05;97600.09;5043824;28;20045;-53
2022/12/25 07:12:15;;;;;;;2.90;1.87;;;10.30;99.90;;;13.34;57.12;97598.06;5035093;28;20045;-54
2022/12/25 07:14:48;;;;;;;4.47;1.83;;;10.30;99.90;;;13.35;56.93;97601.56;5043685;28;20045;-51
2022/12/25 07:17:18;;;;;;;3.42;2.17;;;10.30;99.90;;;13.38;56.79;97601.22;5043783;28;20049;-53
2022/12/25 07:19:46;;;;;;;3.03;2.40;;;10.40;99.90;;;13.38;56.76;97595.88;5042385;28;20247;-52
2022/12/25 07:22:15;;;;;;;2.97;1.97;;;10.40;99.90;;;13.38;56.90;97591.34;5043044;28;20045;-50
2022/12/25 07:24:43;;;;;;;3.53;2.20;;;10.40;99.90;;;13.39;56.85;97587.66;5042478;28;20173;-53
2022/12/25 07:27:11;;;;;;;3.60;2.77;;;10.50;99.90;;;13.39;56.53;97576.13;5043224;28;20252;-50
2022/12/25 07:29:38;;;;;;;4.23;2.40;;;10.40;99.90;;;13.38;56.83;97575.31;5043257;28;20059;-52
2022/12/25 07:32:06;;;;;;;4.90;2.93;;;10.50;99.90;;;13.31;56.79;97568.19;5042746;28;20049;-54
2022/12/25 07:34:34;;;;;;;3.37;2.33;;;10.40;99.90;;;13.27;56.74;97570.34;5043388;28;20352;-53
2022/12/25 07:37:02;;;;;;;3.33;2.33;;;10.40;99.90;;;13.20;57.07;97574.75;5042428;28;20045;-52
2022/12/25 07:39:30;;;;;;;2.57;1.80;;;10.40;99.90;;;13.20;57.30;97572.06;5043207;28;20237;-54
2022/12/25 07:41:58;;;;;;;3.40;2.53;;;10.40;99.90;;;13.24;57.14;97575.22;5042641;28;20057;-52
2022/12/25 07:44:27;;;;;;;4.50;2.00;;;10.40;99.90;;;13.25;57.00;97572.38;5041431;28;20055;-52
2022/12/25 07:46:55;;;;;;;3.10;2.33;;;10.40;99.90;;;13.29;56.91;97575.53;5043440;28;20045;-53
2022/12/25 07:49:22;;;;;;;3.13;2.03;;;10.40;99.90;;;13.32;57.07;97568.03;5043032;28;20037;-53
2022/12/25 07:51:50;;;;;;;3.03;2.10;;;10.40;99.90;;;13.31;56.76;97571.69;5042764;28;20041;-52
2022/12/25 07:54:18;;;;;;;2.40;1.70;;;10.40;99.90;;;13.32;57.01;97562.66;5042711;28;20048;-54
2022/12/25 07:56:52;;;;;;;3.10;2.17;;;10.40;99.90;;;13.28;56.74;97561.34;5042643;28;20343;-52
2022/12/25 07:59:20;;;;;;;2.27;1.77;;;10.40;99.90;;;13.25;56.71;97568.88;5042907;28;20047;-51
2022/12/25 08:01:49;;;;;;;3.37;2.17;;;10.40;99.90;;;13.20;57.17;97580.94;5042664;28;20041;-49
2022/12/25 08:04:17;;;;;;;6.17;2.17;;;10.30;99.90;;;13.23;56.99;97581.59;5042323;28;20238;-50
2022/12/25 08:06:45;;;;;;;3.83;2.20;;;10.30;99.90;;;13.26;56.71;97589.25;5042628;28;20361;-50
2022/12/25 08:09:13;;;;;;;2.80;1.93;;;10.30;99.90;;;13.28;56.86;97590.75;5041021;28;20045;-54
2022/12/25 08:11:45;;;;;;;5.00;1.87;;;10.30;99.90;;;13.27;56.83;97585.56;5042424;28;20057;-51
2022/12/25 08:14:14;;;;;;;3.30;2.40;;;10.30;99.90;;;13.22;56.92;97585.28;5041248;28;20059;-50
2022/12/25 08:16:41;;;;;;;3.73;2.00;;;10.30;99.90;;;13.22;56.93;97593.28;5042608;28;20349;-49
2022/12/25 08:19:10;;;;;;;3.53;1.90;;;10.40;99.90;;;13.24;57.15;97594.78;5042314;28;20045;-54
2022/12/25 08:21:38;;;;;;;5.67;2.30;;;10.40;99.90;;;13.27;57.21;97597.09;5037244;28;20049;-53
2022/12/25 08:24:06;;;;;;;4.10;2.30;;;10.40;99.90;;;13.28;56.99;97596.09;5041835;28;20033;-54
2022/12/25 08:26:34;;;;;;;3.67;2.20;;;10.40;99.90;;;13.32;56.75;97600.09;5042563;28;20057;-53
2022/12/25 08:29:02;;;;;;;3.57;2.10;;;10.40;99.90;;;13.33;56.88;97587.56;5042369;28;20268;-53
2022/12/25 08:31:32;;;;;;;3.80;1.97;;;10.40;99.90;;;13.31;57.02;97593.06;5042183;28;20243;-54
2022/12/25 08:34:02;;;;;;;2.90;2.10;;;10.40;99.90;;;13.33;56.92;97591.06;5041927;28;20233;-54
2022/12/25 08:36:30;;;;;;;2.77;2.33;;;10.50;99.90;;;13.41;57.01;97592.00;5041136;28;20048;-51
2022/12/25 08:38:58;;;;;;;4.17;2.47;;;10.50;99.90;;;13.46;56.67;97592.31;5041973;28;20033;-54
2022/12/25 08:41:31;;;;;;;3.60;2.30;;;10.60;99.90;;;13.49;56.54;97599.94;5041098;28;20374;-51
2022/12/25 08:43:58;;;;;;;3.63;2.30;;;10.60;99.90;;;13.49;56.79;97603.47;5041481;28;20143;-51
2022/12/25 08:46:26;;;;;;;3.70;2.47;;;10.60;99.90;;;13.51;56.68;97593.44;5041035;28;20049;-50
2022/12/25 08:48:55;;;;;;;3.13;2.27;;;10.60;99.90;;;13.47;56.59;97593.94;5041922;28;20052;-50
2022/12/25 08:51:24;;;;;;;3.53;2.60;;;10.60;99.90;;;13.46;56.76;97590.44;5040641;28;20045;-54
2022/12/25 08:53:58;;;;;;;3.47;2.60;;;10.50;99.90;;;13.46;56.67;97581.59;5041327;28;20037;-53
2022/12/25 08:56:26;;;;;;;3.55;2.15;;;10.50;99.90;;;13.46;56.56;97574.41;5042368;28;20065;-53
2022/12/25 08:58:54;;;;;;;4.03;2.40;;;10.50;99.90;;;13.44;56.60;97565.75;5041955;28;20045;-52
2022/12/25 09:01:22;;;;;;;2.90;2.10;;;10.40;99.90;;;13.39;56.94;97555.56;5041885;28;20049;-54
2022/12/25 09:03:50;;;;;;;4.40;2.73;;;10.40;99.90;;;13.37;56.91;97543.41;5041607;28;20062;-53
2022/12/25 09:06:18;;;;;;;4.17;2.80;;;10.40;99.90;;;13.31;56.94;97536.09;5041742;28;20041;-51
2022/12/25 09:08:46;;;;;;;4.00;2.90;;;10.40;99.90;;;13.29;57.19;97533.59;5041790;28;20356;-53
2022/12/25 09:11:18;;;;;;;3.87;2.40;;;10.40;99.90;;;13.26;57.18;97541.13;5041394;28;20045;-52
2022/12/25 09:13:47;;;;;;;6.47;3.93;;;10.50;99.90;;;13.27;57.42;97548.97;5041902;28;20042;-52
2022/12/25 09:16:20;;;;;;;3.83;2.70;;;10.50;99.90;;;13.34;57.32;97547.28;5040793;28;20211;-50
2022/12/25 09:18:48;;;;;;;3.40;2.90;;;10.50;99.90;;;13.37;57.31;97538.88;5040185;28;20049;-52
2022/12/25 09:21:17;;;;;;;5.10;2.70;;;10.60;99.90;;;13.35;57.46;97554.28;5041517;28;20340;-53
2022/12/25 09:23:45;;;;;;;4.40;2.73;;;10.60;99.90;;;13.38;57.52;97555.78;5041363;28;20045;-52
2022/12/25 09:26:17;;;;;;;3.70;2.40;;;10.60;99.90;;;13.33;57.77;97558.16;5041778;28;20045;-51
2022/12/25 09:28:45;;;;;;;3.37;2.37;;;10.70;99.90;;;13.35;57.63;97562.28;5040379;28;20401;-53
2022/12/25 09:31:21;;;;;;;3.80;2.65;;;10.70;99.90;;;13.41;57.59;97558.06;5040571;28;20041;-53
2022/12/25 09:33:50;;;;;;;3.67;2.93;;;10.70;99.90;;;13.44;57.56;97559.56;5040285;28;20366;-55
2022/12/25 09:36:20;;;;;;;4.27;2.63;;;10.70;99.90;;;13.46;57.51;97555.69;5040358;28;20366;-53
2022/12/25 09:38:48;;;;;;;3.87;2.87;;;10.70;99.90;;;13.48;57.66;97555.50;5040414;28;20041;-54
2022/12/25 09:41:44;;;;;;;4.03;3.17;;;10.70;99.90;;;13.54;57.59;97554.78;5040384;28;20197;-54
2022/12/25 09:44:41;;;;;;;4.80;3.17;;;10.80;99.90;;;13.62;57.49;97564.56;5033324;28;20053;-51
2022/12/25 09:47:26;;;;;;;4.17;3.17;;;10.80;99.90;;;13.68;57.46;97563.84;5040288;28;20037;-53
2022/12/25 09:50:46;;;;;;;5.07;3.17;;;10.80;99.90;;;13.69;57.47;97566.34;5040408;28;20064;-54
2022/12/25 09:53:23;;;;;;;4.20;2.70;;;10.90;99.90;;;13.75;57.45;97562.09;5033512;28;20362;-55
2022/12/25 09:56:15;;;;;;;3.43;2.73;;;10.90;99.90;;;13.77;57.43;97558.22;5041360;28;20335;-53
2022/12/25 09:58:43;;;;;;;4.00;2.80;;;11.00;99.90;;;13.84;57.42;97563.69;5040205;28;20041;-53
2022/12/25 10:01:11;;;;;;;4.03;2.97;;;11.10;99.90;;;13.90;57.38;97548.72;5035229;28;20046;-51
2022/12/25 10:04:25;;;;;;;4.37;2.70;;;11.10;99.90;;;13.95;57.39;97541.78;5044843;28;20041;-53
2022/12/25 10:06:55;;;;;;;3.67;2.60;;;11.20;99.90;;;14.03;57.38;97548.06;5044108;28;20340;-55
2022/12/25 10:09:58;;;;;;;3.50;2.77;;;11.20;99.90;;;14.03;57.49;97538.19;5045007;28;20045;-54
2022/12/25 10:12:44;;;;;;;5.93;3.20;;;11.30;99.90;;;14.08;57.44;97535.78;5038182;28;20050;-53
2022/12/25 10:15:46;;;;;;;4.43;3.70;;;11.40;99.90;;;14.12;57.34;97523.69;5043868;28;20043;-53
2022/12/25 10:18:43;;;;;;;5.40;3.27;;;11.40;99.90;;;14.15;57.53;97520.66;5043886;28;20340;-55
2022/12/25 10:21:17;;;;;;;4.13;2.60;;;11.40;99.90;;;14.21;57.67;97520.91;5044641;28;20045;-53
2022/12/25 10:24:17;;;;;;;4.75;3.20;;;11.50;99.90;;;14.20;57.40;97522.75;5043521;28;20051;-54
2022/12/25 10:26:45;;;;;;;4.40;3.03;;;11.60;99.90;;;14.27;57.42;97514.78;5055782;28;20057;-52
2022/12/25 10:29:20;;;;;;;5.23;2.93;;;11.50;99.90;;;14.31;57.34;97508.06;5044383;28;20052;-55
2022/12/25 10:31:52;;;;;;;4.33;2.97;;;11.60;99.90;;;14.36;57.29;97509.16;5044441;28;20041;-54
2022/12/25 10:34:20;;;;;;;5.70;3.70;;;11.60;99.90;;;14.43;57.20;97503.06;5037315;28;20046;-54
2022/12/25 10:36:49;;;;;;;4.23;3.00;;;11.70;99.90;;;14.41;57.22;97499.72;5044203;28;20045;-54
2022/12/25 10:39:20;;;;;;;4.73;3.10;;;11.70;99.90;;;14.44;57.27;97491.31;5044370;28;20045;-54
2022/12/25 10:42:10;;;;;;;5.80;3.07;;;11.70;99.90;;;14.50;57.31;97490.53;5043915;28;20055;-52
2022/12/25 10:44:37;;;;;;;5.27;3.17;;;11.80;99.90;;;14.53;57.41;97490.16;5039481;28;20048;-56
2022/12/25 10:47:05;;;;;;;4.28;3.20;;;11.90;99.90;;;14.59;57.34;97481.41;5044142;28;20045;-54
2022/12/25 10:49:38;;;;;;;6.53;3.63;;;11.90;99.90;;;14.67;57.13;97467.06;5044339;28;20041;-54
2022/12/25 10:52:25;;;;;;;4.47;2.67;;;12.00;99.90;;;14.76;57.30;97473.94;5041643;28;20052;-53
2022/12/25 10:54:53;;;;;;;4.00;2.80;;;12.10;99.90;;;14.86;57.04;97471.75;5044052;28;20041;-54
2022/12/25 10:57:24;;;;;;;4.10;2.47;;;12.20;99.90;;;14.91;56.72;97461.31;5043073;28;20252;-55
2022/12/25 10:59:56;;;;;;;3.90;2.60;;;12.30;99.90;;;15.02;56.88;97461.78;5042939;28;20366;-53
2022/12/25 11:02:37;;;;;;;2.85;2.22;;;12.40;99.90;;;15.11;56.77;97463.31;5043683;28;20047;-52
2022/12/25 11:05:08;;;;;;;3.63;2.00;;;12.50;99.90;;;15.20;56.47;97453.25;5042794;28;20046;-55
2022/12/25 11:07:49;;;;;;;3.13;2.00;;;12.50;99.90;;;15.27;56.23;97465.69;5043768;28;20402;-51
2022/12/25 11:10:24;;;;;;;3.53;2.60;;;12.60;99.90;;;15.35;56.26;97462.88;5034987;28;20077;-52
2022/12/25 11:12:53;;;;;;;2.95;2.30;;;12.70;99.90;;;15.42;56.24;97457.56;5042026;28;20037;-54
2022/12/25 11:15:39;;;;;;;2.25;1.65;;;12.70;99.90;;;15.41;56.14;97461.28;5043800;28;20041;-54
2022/12/25 11:18:24;;;;;;;3.50;2.20;;;12.70;99.90;;;15.48;56.05;97459.44;5042488;28;20071;-55
2022/12/25 11:20:58;;;;;;;2.75;1.92;;;12.80;99.90;;;15.51;55.48;97463.59;5041252;28;20352;-53
2022/12/25 11:23:30;;;;;;;4.00;2.50;;;12.80;99.90;;;15.59;55.85;97452.72;5038780;28;20045;-53
2022/12/25 11:26:03;;;;;;;3.28;2.08;;;12.90;99.90;;;15.65;55.75;97448.41;5043499;28;20251;-52
2022/12/25 11:28:36;;;;;;;3.95;2.22;;;12.90;99.90;;;15.69;55.64;97442.44;5043567;28;20120;-54
2022/12/25 11:31:11;;;;;;;3.28;1.77;;;13.00;99.90;;;15.74;55.37;97439.19;5043374;28;20054;-54
2022/12/25 11:34:40;;;;;;;2.55;1.65;;;13.00;99.90;;;15.74;55.80;97440.03;5042056;28;20343;-57
2022/12/25 11:37:19;;;;;;;2.38;1.60;;;13.10;99.90;;;15.81;55.29;97440.03;5063483;28;20059;-55
2022/12/25 11:39:47;;;;;;;2.50;1.70;;;13.10;99.90;;;15.84;55.13;97430.75;5065079;28;20045;-55
2022/12/25 11:42:35;;;;;;;2.40;1.55;;;13.10;99.90;;;15.86;54.87;97423.34;5046884;28;20060;-55
2022/12/25 11:45:23;;;;;;;1.92;1.35;;;13.20;99.90;;;15.86;55.02;97416.13;5042001;28;20049;-55
2022/12/25 11:48:16;;;;;;;1.83;1.20;;;13.20;99.90;;;15.90;54.80;97403.97;5043144;28;20045;-56
2022/12/25 11:50:58;;;;;;;3.20;1.67;;;13.20;99.90;;;15.95;55.03;97406.03;5023503;28;20042;-55
2022/12/25 11:53:38;;;;;;;3.47;2.03;;;13.30;99.90;;;16.01;54.81;97401.72;5041387;28;20037;-55
2022/12/25 11:56:27;;;;;;;2.30;1.90;;;13.30;99.90;;;16.06;54.77;97399.25;5041760;28;20255;-52
2022/12/25 11:59:29;;;;;;;2.80;1.70;;;13.40;99.90;;;16.13;54.72;97392.88;5042125;28;20045;-53
2022/12/25 12:02:08;;;;;;;2.45;1.70;;;13.50;99.90;;;16.22;54.31;97382.75;5042683;28;20359;-54
2022/12/25 12:04:41;;;;;;;2.22;1.60;;;13.60;99.90;;;16.28;54.33;97373.06;5042861;28;20044;-54
2022/12/25 12:07:24;;;;;;;2.15;1.58;;;13.60;99.90;;;16.36;54.09;97363.97;5041557;28;20041;-54
2022/12/25 12:10:20;;;;;;;2.13;1.50;;;13.70;99.90;;;16.43;54.23;97373.72;5041620;28;20243;-55
2022/12/25 12:12:59;;;;;;;2.47;1.55;;;13.80;99.90;;;16.52;53.80;97372.47;5038010;28;20055;-56
2022/12/25 12:15:46;;;;;;;4.10;1.70;;;13.90;99.90;;;16.60;53.73;97357.19;5018720;28;20045;-52
2022/12/25 12:18:25;;;;;;;3.22;1.60;;;13.90;99.90;;;16.66;53.74;97364.44;5042804;28;20343;-55
2022/12/25 12:21:05;;;;;;;2.60;1.40;;;14.00;99.90;;;16.71;53.54;97353.88;5040874;28;20068;-54
2022/12/25 12:24:14;;;;;;;2.20;1.25;;;14.10;99.90;;;16.73;53.91;97343.75;5035443;28;20041;-55
2022/12/25 12:26:45;;;;;;;2.10;1.50;;;14.20;99.90;;;16.80;53.27;97343.75;5036211;28;20047;-54
2022/12/25 12:29:36;;;;;;;2.20;1.77;;;14.20;99.90;;;16.82;53.57;97345.22;5041516;28;20053;-53